CheckWX is a tool to help pilots better visualize weather data.  It is not intended as a substitute for an official pre-flight weather briefing.

07:12:19 UTC

GFLL TAF
Lungi International Airport
Freetown, Sierra Leone
TAF GFLL 151700Z 1518/1624 26007KT 9999 BKN012 FM152000 16012KT 7000 TS/TSRA BKN011 FEW024CB TEMPO 1606/1610 24007KT 9999 BKN012 TEMPO 30008KT BKN013

Jun-15@
18:00 UTC

Jun-15 @ 18:00 UTC

Jun-17@
00:00 UTC

Jun-17 @ 00:00 UTC

TAF GFLL 151700Z 1518/1624 26007KT 9999 BKN012

Jun-15@
20:00 UTC

Jun-15 @ 20:00 UTC

Jun-17@
00:00 UTC

Jun-17 @ 00:00 UTC

FM152000 16012KT 7000 TS/TSRA BKN011 FEW024CB

From

From Standard forecast or significant change

Wind
  • 160° at 12 KTS
Conditions
Thunderstorm, Rain, Thunderstorm
Cloud Levels
  • Broken at 1,100' AGL
  • Few at 2,400' AGL

Jun-16@
06:00 UTC

Jun-16 @ 06:00 UTC

Jun-16@
10:00 UTC

Jun-16 @ 10:00 UTC

TEMPO 1606/1610 24007KT 9999 BKN012

Temporary

Temporary Changes expected for less than half the time period

Wind
  • 240° at 7 KTS
Cloud Levels
  • Broken at 1,200' AGL